createdAt,value
2023-05-14T00:00:06.367Z,954.65
2023-05-14T00:00:17.133Z,954.65
2023-05-14T00:00:28.175Z,954.65
2023-05-14T00:00:39.162Z,954.66
2023-05-14T00:00:49.913Z,954.65
2023-05-14T00:01:00.959Z,954.65
2023-05-14T00:01:11.923Z,954.64
2023-05-14T00:01:22.698Z,954.65
2023-05-14T00:01:33.743Z,954.65
2023-05-14T00:01:44.713Z,954.64
2023-05-14T00:01:55.498Z,954.64
2023-05-14T00:02:06.547Z,954.64
2023-05-14T00:02:17.548Z,954.64
2023-05-14T00:02:28.458Z,954.65
2023-05-14T00:02:39.100Z,954.64
2023-05-14T00:02:50.164Z,954.65
2023-05-14T00:03:01.006Z,954.64
2023-05-14T00:03:11.939Z,954.62
2023-05-14T00:03:22.530Z,954.63
2023-05-14T00:03:33.420Z,954.63
2023-05-14T00:03:44.505Z,954.64
2023-05-14T00:03:55.542Z,954.64
2023-05-14T00:04:06.400Z,954.62
2023-05-14T00:04:16.962Z,954.62
2023-05-14T00:04:27.966Z,954.61
2023-05-14T00:04:38.758Z,954.60
2023-05-14T00:04:49.781Z,954.60
2023-05-14T00:05:00.748Z,954.61
2023-05-14T00:05:11.510Z,954.61
2023-05-14T00:05:22.559Z,954.62
2023-05-14T00:05:33.516Z,954.61
2023-05-14T00:05:44.286Z,954.61
2023-05-14T00:05:55.345Z,954.60
2023-05-14T00:06:06.303Z,954.59
2023-05-14T00:06:17.070Z,954.60
2023-05-14T00:06:28.121Z,954.59
2023-05-14T00:06:39.090Z,954.60
2023-05-14T00:06:49.856Z,954.59
2023-05-14T00:07:00.914Z,954.59
2023-05-14T00:07:11.856Z,954.58
2023-05-14T00:07:22.640Z,954.58
2023-05-14T00:07:33.686Z,954.58
2023-05-14T00:07:44.658Z,954.58
2023-05-14T00:07:55.437Z,954.58
2023-05-14T00:08:06.485Z,954.56
2023-05-14T00:08:17.442Z,954.57
2023-05-14T00:08:28.216Z,954.57
2023-05-14T00:08:39.261Z,954.57
2023-05-14T00:08:50.226Z,954.57
2023-05-14T00:09:01.009Z,954.56
2023-05-14T00:09:12.038Z,954.56
2023-05-14T00:09:23.004Z,954.56
2023-05-14T00:09:33.816Z,954.57
2023-05-14T00:09:44.830Z,954.57
2023-05-14T00:09:55.806Z,954.56
2023-05-14T00:10:06.572Z,954.56
2023-05-14T00:10:17.628Z,954.56
2023-05-14T00:10:28.579Z,954.55
2023-05-14T00:10:39.348Z,954.55
2023-05-14T00:10:50.386Z,954.56
2023-05-14T00:11:01.362Z,954.56
2023-05-14T00:11:12.129Z,954.55
2023-05-14T00:11:23.206Z,954.55
2023-05-14T00:11:34.152Z,954.54
2023-05-14T00:11:44.925Z,954.54
2023-05-14T00:11:55.960Z,954.54
2023-05-14T00:12:06.933Z,954.54
2023-05-14T00:12:17.690Z,954.54
2023-05-14T00:12:28.745Z,954.53
2023-05-14T00:12:39.727Z,954.55
2023-05-14T00:12:50.494Z,954.55
2023-05-14T00:13:01.573Z,954.54
2023-05-14T00:13:12.506Z,954.53
2023-05-14T00:13:23.273Z,954.54
2023-05-14T00:13:34.319Z,954.54
2023-05-14T00:13:45.290Z,954.53
2023-05-14T00:13:56.049Z,954.52
2023-05-14T00:14:07.095Z,954.52
2023-05-14T00:14:18.067Z,954.51
2023-05-14T00:14:28.843Z,954.52
2023-05-14T00:14:39.883Z,954.52
2023-05-14T00:14:50.851Z,954.51
2023-05-14T00:15:01.634Z,954.50
2023-05-14T00:15:12.677Z,954.50
2023-05-14T00:15:23.644Z,954.51
2023-05-14T00:15:34.696Z,954.51
2023-05-14T00:15:45.257Z,954.51
2023-05-14T00:15:56.282Z,954.50
2023-05-14T00:16:07.166Z,954.51
2023-05-14T00:16:17.655Z,954.52
2023-05-14T00:16:28.705Z,954.52
2023-05-14T00:16:39.833Z,954.52
2023-05-14T00:16:50.354Z,954.50
2023-05-14T00:17:01.334Z,954.51
2023-05-14T00:17:12.098Z,954.51
2023-05-14T00:17:23.172Z,954.51
2023-05-14T00:17:34.217Z,954.51
2023-05-14T00:17:45.051Z,954.51
2023-05-14T00:17:55.565Z,954.52
2023-05-14T00:18:06.633Z,954.52
2023-05-14T00:18:17.391Z,954.53
2023-05-14T00:18:28.463Z,954.53
2023-05-14T00:18:39.476Z,954.52
2023-05-14T00:18:50.333Z,954.51
2023-05-14T00:19:00.909Z,954.51
2023-05-14T00:19:12.015Z,954.52
2023-05-14T00:19:22.772Z,954.52
2023-05-14T00:19:33.875Z,954.51
2023-05-14T00:19:44.808Z,954.51
2023-05-14T00:19:55.578Z,954.51
2023-05-14T00:20:06.623Z,954.51
2023-05-14T00:20:17.606Z,954.52
2023-05-14T00:20:28.360Z,954.52
2023-05-14T00:20:39.413Z,954.52
2023-05-14T00:20:50.372Z,954.51
2023-05-14T00:21:01.193Z,954.51
2023-05-14T00:21:11.700Z,954.53
2023-05-14T00:21:22.664Z,954.51
2023-05-14T00:21:33.455Z,954.50
2023-05-14T00:21:44.468Z,954.51
2023-05-14T00:21:55.432Z,954.51
2023-05-14T00:22:06.254Z,954.51
2023-05-14T00:22:16.743Z,954.51
2023-05-14T00:22:27.709Z,954.51
2023-05-14T00:22:38.509Z,954.50
2023-05-14T00:22:49.040Z,954.50
2023-05-14T00:23:00.001Z,954.49
2023-05-14T00:23:10.766Z,954.49
2023-05-14T00:23:21.815Z,954.50
2023-05-14T00:23:32.778Z,954.52
2023-05-14T00:23:43.573Z,954.52
2023-05-14T00:23:54.598Z,954.51
2023-05-14T00:24:05.575Z,954.51
2023-05-14T00:24:16.341Z,954.50
2023-05-14T00:24:27.395Z,954.50
2023-05-14T00:24:38.362Z,954.49
2023-05-14T00:24:49.153Z,954.49
2023-05-14T00:25:00.197Z,954.49
2023-05-14T00:25:11.165Z,954.48
2023-05-14T00:25:21.932Z,954.47
2023-05-14T00:25:33.016Z,954.48
2023-05-14T00:25:43.984Z,954.48
2023-05-14T00:25:54.749Z,954.47
2023-05-14T00:26:05.805Z,954.48
2023-05-14T00:26:16.752Z,954.48
2023-05-14T00:26:27.537Z,954.48
2023-05-14T00:26:38.564Z,954.47
2023-05-14T00:26:49.531Z,954.47
2023-05-14T00:27:00.295Z,954.48
2023-05-14T00:27:11.340Z,954.48
2023-05-14T00:27:22.304Z,954.48
2023-05-14T00:27:33.076Z,954.49
2023-05-14T00:27:44.130Z,954.48
2023-05-14T00:27:55.105Z,954.48
2023-05-14T00:28:05.864Z,954.46
2023-05-14T00:28:16.923Z,954.46
2023-05-14T00:28:27.909Z,954.46
2023-05-14T00:28:38.692Z,954.46
2023-05-14T00:28:49.730Z,954.47
2023-05-14T00:29:00.702Z,954.49
2023-05-14T00:29:11.476Z,954.48
2023-05-14T00:29:22.517Z,954.49
2023-05-14T00:29:33.477Z,954.47
2023-05-14T00:29:44.250Z,954.47
2023-05-14T00:29:55.292Z,954.47
2023-05-14T00:30:06.258Z,954.48
2023-05-14T00:30:17.031Z,954.49
2023-05-14T00:30:28.058Z,954.48
2023-05-14T00:30:39.030Z,954.48
2023-05-14T00:30:49.831Z,954.46
2023-05-14T00:31:00.370Z,954.46
2023-05-14T00:31:11.391Z,954.46
2023-05-14T00:31:22.182Z,954.47
2023-05-14T00:31:33.278Z,954.45
2023-05-14T00:31:44.357Z,954.45
2023-05-14T00:31:55.173Z,954.44
2023-05-14T00:32:06.199Z,954.45
2023-05-14T00:32:17.151Z,954.45
2023-05-14T00:32:27.934Z,954.47
2023-05-14T00:32:38.991Z,954.46
2023-05-14T00:32:49.994Z,954.46
2023-05-14T00:33:00.736Z,954.47
2023-05-14T00:33:11.780Z,954.47
2023-05-14T00:33:22.742Z,954.47
2023-05-14T00:33:33.510Z,954.47
2023-05-14T00:33:44.550Z,954.48
2023-05-14T00:33:55.520Z,954.47
2023-05-14T00:34:06.283Z,954.46
2023-05-14T00:34:17.326Z,954.46
2023-05-14T00:34:28.288Z,954.46
2023-05-14T00:34:39.069Z,954.48
2023-05-14T00:34:50.104Z,954.47
2023-05-14T00:35:01.086Z,954.46
2023-05-14T00:35:11.837Z,954.46
2023-05-14T00:35:22.883Z,954.47
2023-05-14T00:35:33.846Z,954.46
2023-05-14T00:35:44.624Z,954.46
2023-05-14T00:35:55.668Z,954.47
2023-05-14T00:36:06.628Z,954.48
2023-05-14T00:36:17.400Z,954.47
2023-05-14T00:36:28.440Z,954.47
2023-05-14T00:36:39.421Z,954.48
2023-05-14T00:36:50.211Z,954.48
2023-05-14T00:37:01.254Z,954.48
2023-05-14T00:37:12.220Z,954.48
2023-05-14T00:37:22.990Z,954.47
2023-05-14T00:37:34.032Z,954.47
2023-05-14T00:37:45.005Z,954.48
2023-05-14T00:37:55.782Z,954.46
2023-05-14T00:38:06.861Z,954.47
2023-05-14T00:38:17.797Z,954.47
2023-05-14T00:38:28.602Z,954.47
2023-05-14T00:38:39.620Z,954.46
2023-05-14T00:38:50.580Z,954.45
2023-05-14T00:39:01.365Z,954.44
2023-05-14T00:39:12.398Z,954.45
2023-05-14T00:39:23.373Z,954.45
2023-05-14T00:39:34.143Z,954.46
2023-05-14T00:39:45.180Z,954.46
2023-05-14T00:39:56.148Z,954.44
2023-05-14T00:40:06.968Z,954.45
2023-05-14T00:40:17.952Z,954.45
2023-05-14T00:40:28.916Z,954.45
2023-05-14T00:40:39.717Z,954.45
2023-05-14T00:40:50.746Z,954.46
2023-05-14T00:41:01.713Z,954.46
2023-05-14T00:41:12.474Z,954.46
2023-05-14T00:41:23.519Z,954.46
2023-05-14T00:41:34.550Z,954.46
2023-05-14T00:41:45.287Z,954.45
2023-05-14T00:41:56.354Z,954.45
2023-05-14T00:42:07.326Z,954.45
2023-05-14T00:42:18.092Z,954.45
2023-05-14T00:42:29.135Z,954.45
2023-05-14T00:42:40.100Z,954.46
2023-05-14T00:42:50.905Z,954.46
2023-05-14T00:43:01.928Z,954.46
2023-05-14T00:43:12.899Z,954.47
2023-05-14T00:43:23.676Z,954.46
2023-05-14T00:43:34.738Z,954.46
2023-05-14T00:43:45.703Z,954.47
2023-05-14T00:43:56.469Z,954.46
2023-05-14T00:44:07.506Z,954.45
2023-05-14T00:44:18.471Z,954.45
2023-05-14T00:44:29.246Z,954.45
2023-05-14T00:44:40.294Z,954.44
2023-05-14T00:44:51.251Z,954.45
2023-05-14T00:45:02.016Z,954.45
2023-05-14T00:45:13.063Z,954.45
2023-05-14T00:45:24.022Z,954.44
2023-05-14T00:45:34.789Z,954.45
2023-05-14T00:45:45.836Z,954.45
2023-05-14T00:45:56.802Z,954.45
2023-05-14T00:46:07.754Z,954.45
2023-05-14T00:46:18.396Z,954.45
2023-05-14T00:46:29.379Z,954.45
2023-05-14T00:46:40.237Z,954.45
2023-05-14T00:46:50.769Z,954.45
2023-05-14T00:47:01.901Z,954.45
2023-05-14T00:47:12.727Z,954.45
2023-05-14T00:47:23.784Z,954.44
2023-05-14T00:47:34.787Z,954.43
2023-05-14T00:47:45.581Z,954.44
2023-05-14T00:47:56.661Z,954.45
2023-05-14T00:48:07.694Z,954.44
2023-05-14T00:48:18.420Z,954.43
2023-05-14T00:48:29.472Z,954.43
2023-05-14T00:48:40.456Z,954.44
2023-05-14T00:48:51.273Z,954.43
2023-05-14T00:49:02.331Z,954.43
2023-05-14T00:49:13.317Z,954.43
2023-05-14T00:49:24.070Z,954.44
2023-05-14T00:49:35.112Z,954.43
2023-05-14T00:49:46.092Z,954.42
2023-05-14T00:49:56.846Z,954.42
2023-05-14T00:50:07.895Z,954.42
2023-05-14T00:50:18.867Z,954.42
2023-05-14T00:50:29.629Z,954.43
2023-05-14T00:50:40.681Z,954.42
2023-05-14T00:50:51.288Z,954.42
2023-05-14T00:51:02.055Z,954.41
2023-05-14T00:51:13.102Z,954.42
2023-05-14T00:51:24.068Z,954.42
2023-05-14T00:51:34.844Z,954.41
2023-05-14T00:51:45.890Z,954.42
2023-05-14T00:51:56.860Z,954.42
2023-05-14T00:52:07.632Z,954.42
2023-05-14T00:52:18.676Z,954.43
2023-05-14T00:52:29.644Z,954.42
2023-05-14T00:52:40.403Z,954.42
2023-05-14T00:52:51.443Z,954.41
2023-05-14T00:53:02.414Z,954.41
2023-05-14T00:53:13.191Z,954.41
2023-05-14T00:53:24.247Z,954.42
2023-05-14T00:53:35.213Z,954.41
2023-05-14T00:53:46.027Z,954.41
2023-05-14T00:53:57.097Z,954.41
2023-05-14T00:54:08.106Z,954.41
2023-05-14T00:54:18.837Z,954.41
2023-05-14T00:54:29.888Z,954.40
2023-05-14T00:54:40.859Z,954.41
2023-05-14T00:54:51.626Z,954.41
2023-05-14T00:55:02.666Z,954.41
2023-05-14T00:55:13.684Z,954.40
2023-05-14T00:55:24.463Z,954.41
2023-05-14T00:55:35.510Z,954.42
2023-05-14T00:55:46.467Z,954.42
2023-05-14T00:55:57.235Z,954.41
2023-05-14T00:56:08.282Z,954.41
2023-05-14T00:56:19.252Z,954.40
2023-05-14T00:56:30.011Z,954.40
2023-05-14T00:56:41.090Z,954.39
2023-05-14T00:56:52.045Z,954.39
2023-05-14T00:57:02.829Z,954.40
2023-05-14T00:57:13.904Z,954.41
2023-05-14T00:57:24.919Z,954.41
2023-05-14T00:57:35.851Z,954.40
2023-05-14T00:57:46.934Z,954.41
2023-05-14T00:57:57.875Z,954.40
2023-05-14T00:58:08.644Z,954.40
2023-05-14T00:58:19.705Z,954.41
2023-05-14T00:58:30.664Z,954.40
2023-05-14T00:58:41.438Z,954.40
2023-05-14T00:58:52.471Z,954.40
2023-05-14T00:59:03.434Z,954.39
2023-05-14T00:59:14.258Z,954.39
2023-05-14T00:59:25.288Z,954.39
2023-05-14T00:59:36.249Z,954.39
2023-05-14T00:59:47.012Z,954.38
2023-05-14T00:59:58.060Z,954.38
2023-05-14T01:00:09.050Z,954.38
2023-05-14T01:00:19.809Z,954.39
2023-05-14T01:00:30.839Z,954.39
2023-05-14T01:00:41.822Z,954.40
2023-05-14T01:00:52.643Z,954.39
2023-05-14T01:01:03.298Z,954.38
2023-05-14T01:01:13.805Z,954.38
2023-05-14T01:01:24.687Z,954.39
2023-05-14T01:01:35.231Z,954.39
2023-05-14T01:01:45.734Z,954.39
2023-05-14T01:01:56.487Z,954.38
2023-05-14T01:02:07.537Z,954.38
2023-05-14T01:02:18.519Z,954.38
2023-05-14T01:02:29.349Z,954.38
2023-05-14T01:02:39.964Z,954.37
2023-05-14T01:02:51.004Z,954.37
2023-05-14T01:03:01.904Z,954.37
2023-05-14T01:03:12.498Z,954.38
2023-05-14T01:03:23.586Z,954.38
2023-05-14T01:03:34.405Z,954.39
2023-05-14T01:03:44.980Z,954.38
2023-05-14T01:03:56.218Z,954.39
2023-05-14T01:04:07.146Z,954.38
2023-05-14T01:04:17.626Z,954.39
2023-05-14T01:04:28.590Z,954.39
2023-05-14T01:04:39.362Z,954.40
2023-05-14T01:04:50.398Z,954.38
2023-05-14T01:05:01.365Z,954.38
2023-05-14T01:05:12.138Z,954.38
2023-05-14T01:05:23.199Z,954.37
2023-05-14T01:05:34.151Z,954.37
2023-05-14T01:05:44.919Z,954.38
2023-05-14T01:05:55.967Z,954.37
2023-05-14T01:06:06.949Z,954.36
2023-05-14T01:06:17.696Z,954.36
2023-05-14T01:06:28.745Z,954.38
2023-05-14T01:06:39.709Z,954.36
2023-05-14T01:06:50.470Z,954.36
2023-05-14T01:07:01.518Z,954.36
2023-05-14T01:07:12.494Z,954.36
2023-05-14T01:07:23.270Z,954.38
2023-05-14T01:07:34.309Z,954.37
2023-05-14T01:07:45.270Z,954.36
2023-05-14T01:07:56.032Z,954.36
2023-05-14T01:08:07.083Z,954.36
2023-05-14T01:08:18.048Z,954.35
2023-05-14T01:08:28.843Z,954.36
2023-05-14T01:08:39.864Z,954.36
2023-05-14T01:08:50.846Z,954.36
2023-05-14T01:09:01.594Z,954.37
2023-05-14T01:09:12.635Z,954.36
2023-05-14T01:09:23.602Z,954.37
2023-05-14T01:09:34.366Z,954.37
2023-05-14T01:09:45.412Z,954.37
2023-05-14T01:09:56.383Z,954.36
2023-05-14T01:10:07.148Z,954.37
2023-05-14T01:10:18.191Z,954.36
2023-05-14T01:10:29.157Z,954.35
2023-05-14T01:10:39.928Z,954.36
2023-05-14T01:10:50.975Z,954.36
2023-05-14T01:11:01.930Z,954.36
2023-05-14T01:11:12.703Z,954.35
2023-05-14T01:11:23.762Z,954.35
2023-05-14T01:11:34.709Z,954.35
2023-05-14T01:11:45.494Z,954.36
2023-05-14T01:11:56.521Z,954.36
2023-05-14T01:12:07.482Z,954.35
2023-05-14T01:12:18.254Z,954.36
2023-05-14T01:12:29.302Z,954.36
2023-05-14T01:12:40.273Z,954.37
2023-05-14T01:12:51.057Z,954.36
2023-05-14T01:13:02.113Z,954.37
2023-05-14T01:13:13.094Z,954.38
2023-05-14T01:13:23.868Z,954.38
2023-05-14T01:13:34.947Z,954.38
2023-05-14T01:13:45.905Z,954.38
2023-05-14T01:13:56.674Z,954.37
2023-05-14T01:14:07.739Z,954.36
2023-05-14T01:14:18.706Z,954.37
2023-05-14T01:14:29.481Z,954.36
2023-05-14T01:14:40.522Z,954.35
2023-05-14T01:14:51.479Z,954.36
2023-05-14T01:15:02.252Z,954.36
2023-05-14T01:15:13.290Z,954.37
2023-05-14T01:15:24.252Z,954.37
2023-05-14T01:15:35.027Z,954.38
2023-05-14T01:15:46.064Z,954.37
2023-05-14T01:15:57.025Z,954.37
2023-05-14T01:16:07.817Z,954.37
2023-05-14T01:16:18.888Z,954.36
2023-05-14T01:16:29.872Z,954.36
2023-05-14T01:16:40.668Z,954.35
2023-05-14T01:16:51.841Z,954.35
2023-05-14T01:17:02.267Z,954.35
2023-05-14T01:17:13.034Z,954.36
2023-05-14T01:17:24.072Z,954.36
2023-05-14T01:17:35.055Z,954.37
2023-05-14T01:17:45.819Z,954.37
2023-05-14T01:17:56.933Z,954.37
2023-05-14T01:18:07.928Z,954.37
2023-05-14T01:18:18.676Z,954.38
2023-05-14T01:18:29.790Z,954.38
2023-05-14T01:18:40.879Z,954.38
2023-05-14T01:18:51.678Z,954.38
2023-05-14T01:19:02.756Z,954.37
2023-05-14T01:19:13.776Z,954.38
2023-05-14T01:19:24.556Z,954.38
2023-05-14T01:19:35.123Z,954.37
2023-05-14T01:19:46.086Z,954.37
2023-05-14T01:19:56.854Z,954.37
2023-05-14T01:20:07.898Z,954.37
2023-05-14T01:20:18.862Z,954.37
2023-05-14T01:20:29.644Z,954.37
2023-05-14T01:20:40.680Z,954.37
2023-05-14T01:20:51.642Z,954.37
2023-05-14T01:21:02.408Z,954.37
2023-05-14T01:21:13.462Z,954.37
2023-05-14T01:21:24.429Z,954.37
2023-05-14T01:21:35.212Z,954.36
2023-05-14T01:21:46.242Z,954.36
2023-05-14T01:21:57.213Z,954.36
2023-05-14T01:22:07.978Z,954.35
2023-05-14T01:22:19.021Z,954.35
2023-05-14T01:22:29.982Z,954.34
2023-05-14T01:22:40.758Z,954.35
2023-05-14T01:22:51.817Z,954.34
2023-05-14T01:23:02.783Z,954.34
2023-05-14T01:23:13.557Z,954.33
2023-05-14T01:23:24.670Z,954.32
2023-05-14T01:23:35.637Z,954.31
2023-05-14T01:23:46.419Z,954.31
2023-05-14T01:23:57.485Z,954.31
2023-05-14T01:24:08.430Z,954.31
2023-05-14T01:24:19.240Z,954.31
2023-05-14T01:24:29.741Z,954.31
2023-05-14T01:24:40.705Z,954.30
2023-05-14T01:24:51.476Z,954.30
2023-05-14T01:25:02.526Z,954.30
2023-05-14T01:25:13.490Z,954.30
2023-05-14T01:25:24.255Z,954.30
2023-05-14T01:25:35.491Z,954.30
2023-05-14T01:25:45.888Z,954.30
2023-05-14T01:25:56.661Z,954.29
2023-05-14T01:26:07.699Z,954.28
2023-05-14T01:26:18.663Z,954.27
2023-05-14T01:26:29.448Z,954.28
2023-05-14T01:26:40.480Z,954.28
2023-05-14T01:26:51.497Z,954.29
2023-05-14T01:27:02.206Z,954.29
2023-05-14T01:27:13.254Z,954.28
2023-05-14T01:27:24.215Z,954.28
2023-05-14T01:27:34.989Z,954.27
2023-05-14T01:27:46.027Z,954.28
2023-05-14T01:27:56.993Z,954.28
2023-05-14T01:28:07.758Z,954.27
2023-05-14T01:28:18.809Z,954.27
2023-05-14T01:28:29.774Z,954.27
2023-05-14T01:28:40.549Z,954.27
2023-05-14T01:28:51.603Z,954.27
2023-05-14T01:29:02.577Z,954.28
2023-05-14T01:29:13.359Z,954.28
2023-05-14T01:29:24.400Z,954.28
2023-05-14T01:29:35.402Z,954.29
2023-05-14T01:29:46.161Z,954.29
2023-05-14T01:29:57.209Z,954.28
2023-05-14T01:30:08.174Z,954.26
2023-05-14T01:30:18.936Z,954.28
2023-05-14T01:30:29.986Z,954.27
2023-05-14T01:30:40.979Z,954.28
2023-05-14T01:30:51.745Z,954.27
2023-05-14T01:31:02.801Z,954.27
2023-05-14T01:31:13.763Z,954.26
2023-05-14T01:31:24.551Z,954.25
2023-05-14T01:31:35.598Z,954.26
2023-05-14T01:31:46.619Z,954.25
2023-05-14T01:31:57.433Z,954.26
2023-05-14T01:32:08.470Z,954.26
2023-05-14T01:32:19.428Z,954.27
2023-05-14T01:32:30.241Z,954.25
2023-05-14T01:32:41.252Z,954.25
2023-05-14T01:32:52.256Z,954.25
2023-05-14T01:33:03.066Z,954.26
2023-05-14T01:33:13.559Z,954.26
2023-05-14T01:33:24.533Z,954.25
2023-05-14T01:33:35.307Z,954.25
2023-05-14T01:33:46.342Z,954.24
2023-05-14T01:33:57.318Z,954.23
2023-05-14T01:34:08.083Z,954.24
2023-05-14T01:34:19.135Z,954.24
2023-05-14T01:34:30.091Z,954.25
2023-05-14T01:34:40.859Z,954.25
2023-05-14T01:34:51.905Z,954.23
2023-05-14T01:35:02.878Z,954.24
2023-05-14T01:35:13.691Z,954.23
2023-05-14T01:35:24.192Z,954.23
2023-05-14T01:35:35.145Z,954.22
2023-05-14T01:35:45.918Z,954.22
2023-05-14T01:35:56.954Z,954.22
2023-05-14T01:36:07.918Z,954.22
2023-05-14T01:36:18.739Z,954.22
2023-05-14T01:36:29.237Z,954.22
2023-05-14T01:36:40.225Z,954.22
2023-05-14T01:36:50.976Z,954.22
2023-05-14T01:37:02.033Z,954.22
2023-05-14T01:37:12.984Z,954.22
2023-05-14T01:37:23.760Z,954.22
2023-05-14T01:37:34.816Z,954.20
2023-05-14T01:37:45.787Z,954.19
2023-05-14T01:37:56.553Z,954.20
2023-05-14T01:38:07.598Z,954.20
2023-05-14T01:38:18.572Z,954.20
2023-05-14T01:38:29.349Z,954.20
2023-05-14T01:38:40.405Z,954.21
2023-05-14T01:38:51.378Z,954.22
2023-05-14T01:39:02.146Z,954.21
2023-05-14T01:39:13.189Z,954.20
2023-05-14T01:39:24.158Z,954.20
2023-05-14T01:39:34.945Z,954.20
2023-05-14T01:39:45.983Z,954.21
2023-05-14T01:39:56.945Z,954.20
2023-05-14T01:40:07.731Z,954.20
2023-05-14T01:40:18.801Z,954.21
2023-05-14T01:40:29.753Z,954.22
2023-05-14T01:40:40.538Z,954.22
2023-05-14T01:40:51.578Z,954.21
2023-05-14T01:41:02.543Z,954.20
2023-05-14T01:41:13.308Z,954.21
2023-05-14T01:41:24.351Z,954.20
2023-05-14T01:41:35.318Z,954.19
2023-05-14T01:41:46.084Z,954.19
2023-05-14T01:41:57.150Z,954.19
2023-05-14T01:42:08.097Z,954.19
2023-05-14T01:42:18.882Z,954.19
2023-05-14T01:42:29.926Z,954.19
2023-05-14T01:42:40.900Z,954.19
2023-05-14T01:42:51.744Z,954.19
2023-05-14T01:43:02.276Z,954.20
2023-05-14T01:43:13.298Z,954.20
2023-05-14T01:43:24.123Z,954.20
2023-05-14T01:43:35.154Z,954.20
2023-05-14T01:43:46.105Z,954.19
2023-05-14T01:43:56.878Z,954.18
2023-05-14T01:44:07.941Z,954.18
2023-05-14T01:44:18.903Z,954.18
2023-05-14T01:44:29.711Z,954.17
2023-05-14T01:44:40.754Z,954.16
2023-05-14T01:44:51.717Z,954.17
2023-05-14T01:45:02.484Z,954.16
2023-05-14T01:45:13.550Z,954.15
2023-05-14T01:45:24.521Z,954.15
2023-05-14T01:45:35.292Z,954.16
2023-05-14T01:45:46.363Z,954.16
2023-05-14T01:45:57.373Z,954.16
2023-05-14T01:46:08.170Z,954.17
2023-05-14T01:46:19.175Z,954.16
2023-05-14T01:46:30.198Z,954.16
2023-05-14T01:46:41.198Z,954.15
2023-05-14T01:46:51.674Z,954.15
2023-05-14T01:47:02.657Z,954.14
2023-05-14T01:47:13.443Z,954.14
2023-05-14T01:47:24.582Z,954.14
2023-05-14T01:47:35.614Z,954.14
2023-05-14T01:47:46.442Z,954.14
2023-05-14T01:47:57.473Z,954.13
2023-05-14T01:48:08.445Z,954.13
2023-05-14T01:48:19.187Z,954.14
2023-05-14T01:48:30.260Z,954.13
2023-05-14T01:48:41.239Z,954.13
2023-05-14T01:48:52.003Z,954.12
2023-05-14T01:49:03.050Z,954.13
2023-05-14T01:49:14.043Z,954.13
2023-05-14T01:49:24.788Z,954.12
2023-05-14T01:49:35.837Z,954.12
2023-05-14T01:49:46.811Z,954.12
2023-05-14T01:49:57.578Z,954.12
2023-05-14T01:50:08.643Z,954.13
2023-05-14T01:50:19.609Z,954.13
2023-05-14T01:50:30.374Z,954.13
2023-05-14T01:50:41.430Z,954.12
2023-05-14T01:50:52.389Z,954.11
2023-05-14T01:51:03.161Z,954.10
2023-05-14T01:51:14.197Z,954.11
2023-05-14T01:51:25.170Z,954.11
2023-05-14T01:51:35.951Z,954.10
2023-05-14T01:51:46.982Z,954.11
2023-05-14T01:51:57.950Z,954.10
2023-05-14T01:52:08.712Z,954.09
2023-05-14T01:52:19.753Z,954.08
2023-05-14T01:52:30.725Z,954.10
2023-05-14T01:52:41.489Z,954.09
2023-05-14T01:52:52.529Z,954.09
2023-05-14T01:53:03.502Z,954.09
2023-05-14T01:53:14.267Z,954.09
2023-05-14T01:53:25.303Z,954.09
2023-05-14T01:53:36.280Z,954.08
2023-05-14T01:53:47.069Z,954.08
2023-05-14T01:53:58.096Z,954.08
2023-05-14T01:54:09.072Z,954.08
2023-05-14T01:54:19.840Z,954.08
2023-05-14T01:54:30.892Z,954.07
2023-05-14T01:54:41.858Z,954.08
2023-05-14T01:54:52.664Z,954.07
2023-05-14T01:55:03.684Z,954.06
2023-05-14T01:55:14.644Z,954.06
2023-05-14T01:55:25.440Z,954.06
2023-05-14T01:55:36.455Z,954.04
2023-05-14T01:55:47.434Z,954.04
2023-05-14T01:55:58.190Z,954.05
2023-05-14T01:56:09.245Z,954.05
2023-05-14T01:56:20.201Z,954.04
2023-05-14T01:56:30.972Z,954.04
2023-05-14T01:56:42.021Z,954.04
2023-05-14T01:56:52.983Z,954.04
2023-05-14T01:57:03.782Z,954.04
2023-05-14T01:57:14.804Z,954.04
2023-05-14T01:57:25.784Z,954.04
2023-05-14T01:57:36.537Z,954.04
2023-05-14T01:57:47.580Z,954.05
2023-05-14T01:57:58.653Z,954.04
2023-05-14T01:58:09.382Z,954.04
2023-05-14T01:58:20.425Z,954.04
2023-05-14T01:58:31.390Z,954.05
2023-05-14T01:58:42.157Z,954.05
2023-05-14T01:58:53.210Z,954.05
2023-05-14T01:59:04.184Z,954.05
2023-05-14T01:59:14.956Z,954.05
2023-05-14T01:59:26.019Z,954.04
2023-05-14T01:59:36.985Z,954.05
2023-05-14T01:59:47.746Z,954.04
2023-05-14T01:59:58.788Z,954.03
2023-05-14T02:00:09.774Z,954.04
2023-05-14T02:00:20.630Z,954.04
2023-05-14T02:00:31.187Z,954.05
2023-05-14T02:00:42.129Z,954.03
2023-05-14T02:00:52.898Z,954.03
2023-05-14T02:01:03.978Z,954.04
2023-05-14T02:01:14.962Z,954.05
2023-05-14T02:01:25.766Z,954.04
2023-05-14T02:01:36.812Z,954.03
2023-05-14T02:01:47.772Z,954.04
2023-05-14T02:01:58.792Z,954.03
2023-05-14T02:02:09.371Z,954.02
2023-05-14T02:02:20.334Z,954.03
2023-05-14T02:02:31.145Z,954.03
2023-05-14T02:02:42.201Z,954.03
2023-05-14T02:02:53.186Z,954.03
2023-05-14T02:03:04.060Z,954.02
2023-05-14T02:03:15.071Z,954.02
2023-05-14T02:03:26.037Z,954.02
2023-05-14T02:03:36.833Z,954.02
2023-05-14T02:03:47.938Z,954.02
2023-05-14T02:03:58.450Z,954.01
2023-05-14T02:04:09.235Z,954.01
2023-05-14T02:04:19.866Z,954.01
2023-05-14T02:04:30.347Z,954.02
2023-05-14T02:04:41.124Z,954.02
2023-05-14T02:04:52.166Z,954.02
2023-05-14T02:05:04.346Z,954.02
2023-05-14T02:05:14.059Z,954.02
2023-05-14T02:05:25.101Z,954.02
2023-05-14T02:05:36.073Z,954.02
2023-05-14T02:05:46.854Z,954.02
2023-05-14T02:05:57.910Z,954.02
2023-05-14T02:06:08.842Z,954.02
2023-05-14T02:06:19.606Z,954.02
2023-05-14T02:06:30.660Z,954.01
2023-05-14T02:06:41.628Z,954.02
2023-05-14T02:06:52.396Z,954.02
2023-05-14T02:07:03.461Z,954.02
2023-05-14T02:07:14.399Z,954.03
2023-05-14T02:07:25.171Z,954.02
2023-05-14T02:07:36.219Z,954.01
2023-05-14T02:07:47.177Z,954.01
2023-05-14T02:07:57.945Z,954.01
2023-05-14T02:08:09.000Z,954.01
2023-05-14T02:08:19.955Z,954.01
2023-05-14T02:08:30.729Z,954.01
2023-05-14T02:08:41.771Z,954.01
2023-05-14T02:08:52.731Z,954.01
2023-05-14T02:09:03.505Z,954.01
2023-05-14T02:09:14.542Z,954.02
2023-05-14T02:09:25.508Z,954.02
2023-05-14T02:09:36.301Z,954.01
2023-05-14T02:09:47.336Z,954.01
2023-05-14T02:09:58.305Z,954.01
2023-05-14T02:10:09.078Z,954.00
2023-05-14T02:10:20.126Z,954.00
2023-05-14T02:10:31.087Z,954.01
2023-05-14T02:10:41.851Z,954.00
2023-05-14T02:10:52.897Z,954.00
2023-05-14T02:11:03.873Z,954.00
2023-05-14T02:11:14.642Z,953.99
2023-05-14T02:11:25.683Z,953.99
2023-05-14T02:11:36.660Z,954.00
2023-05-14T02:11:47.416Z,953.99
2023-05-14T02:11:58.476Z,953.99
2023-05-14T02:12:09.453Z,954.00
2023-05-14T02:12:20.193Z,954.01
2023-05-14T02:12:31.238Z,954.00
2023-05-14T02:12:42.216Z,953.99
2023-05-14T02:12:52.970Z,953.99
2023-05-14T02:13:04.023Z,953.99
2023-05-14T02:13:14.990Z,953.99
2023-05-14T02:13:25.749Z,954.00
2023-05-14T02:13:36.801Z,954.00
2023-05-14T02:13:47.756Z,954.00
2023-05-14T02:13:58.522Z,953.99
2023-05-14T02:14:09.698Z,953.99
2023-05-14T02:14:20.112Z,954.00
2023-05-14T02:14:30.880Z,954.00
2023-05-14T02:14:41.976Z,953.99
2023-05-14T02:14:52.932Z,954.00
2023-05-14T02:15:03.695Z,954.02
2023-05-14T02:15:14.739Z,954.02
2023-05-14T02:15:25.705Z,954.02
2023-05-14T02:15:36.514Z,954.01
2023-05-14T02:15:47.538Z,954.00
2023-05-14T02:15:58.604Z,954.00
2023-05-14T02:16:09.358Z,954.00